PRIVATE WETTERSTATION BILLIGHEIM-ALLFELD                       ZURCK
Wetterdaten: Donnerstag, 24.03.2016
Datum Zeit Temp. A. Temp. A. min Temp. A. max Feuchte A. Luftdruck Regen Wind Richtung Richtung Sonnenschein ET Solar Taupunkt Windchill Windben Empfang
24.03.2016 00:00 2,8 C 2,6 C 2,8 C 88 % 1011,9 hPa 0,0 l/m 0,0 km/h (0 Bft) N 0 0 min 0,000 mm 0 W/m 1,0 C 2,8 C 0,0 km/h (0 Bft) 100 %
24.03.2016 00:10 2,9 C 2,8 C 2,9 C 88 % 1011,8 hPa 0,0 l/m 0,0 km/h (0 Bft) N 0 0 min 0,000 mm 0 W/m 1,1 C 2,9 C 0,0 km/h (0 Bft) 100 %
24.03.2016 00:20 2,9 C 2,8 C 2,9 C 87 % 1011,8 hPa 0,0 l/m 0,0 km/h (0 Bft) N 0 0 min 0,000 mm 0 W/m 1,0 C 2,9 C 0,0 km/h (0 Bft) 100 %
24.03.2016 00:30 2,8 C 2,8 C 2,9 C 87 % 1011,8 hPa 0,0 l/m 0,0 km/h (0 Bft) N 360 0 min 0,000 mm 0 W/m 0,9 C 2,8 C 1,6 km/h (1 Bft) 100 %
24.03.2016 00:40 2,7 C 2,7 C 2,8 C 87 % 1011,8 hPa 0,0 l/m 0,0 km/h (0 Bft) N 0 0 min 0,000 mm 0 W/m 0,8 C 2,7 C 0,0 km/h (0 Bft) 100 %
24.03.2016 00:50 2,5 C 2,5 C 2,7 C 87 % 1011,9 hPa 0,0 l/m 0,0 km/h (0 Bft) N 0 0 min 0,000 mm 0 W/m 0,6 C 2,5 C 0,0 km/h (0 Bft) 100 %
24.03.2016 01:00 2,3 C 2,3 C 2,5 C 87 % 1011,9 hPa 0,0 l/m 0,0 km/h (0 Bft) N 0 0 min 0,000 mm 0 W/m 0,4 C 2,3 C 0,0 km/h (0 Bft) 100 %
24.03.2016 01:10 2,3 C 2,3 C 2,3 C 87 % 1011,9 hPa 0,0 l/m 0,0 km/h (0 Bft) N 0 0 min 0,000 mm 0 W/m 0,4 C 2,3 C 0,0 km/h (0 Bft) 91 %
24.03.2016 01:20 2,1 C 2,1 C 2,3 C 87 % 1011,9 hPa 0,0 l/m 0,0 km/h (0 Bft) N 0 0 min 0,000 mm 0 W/m 0,2 C 2,1 C 0,0 km/h (0 Bft) 100 %
24.03.2016 01:30 2,0 C 2,0 C 2,1 C 87 % 1011,9 hPa 0,0 l/m 0,0 km/h (0 Bft) N 0 0 min 0,000 mm 0 W/m 0,1 C 2,0 C 0,0 km/h (0 Bft) 100 %
24.03.2016 01:40 1,8 C 1,8 C 2,0 C 88 % 1011,9 hPa 0,0 l/m 0,0 km/h (0 Bft) N 0 0 min 0,000 mm 0 W/m 0,0 C 1,8 C 0,0 km/h (0 Bft) 100 %
24.03.2016 01:50 1,6 C 1,6 C 1,8 C 88 % 1011,9 hPa 0,0 l/m 0,0 km/h (0 Bft) N 0 0 min 0,000 mm 0 W/m -0,2 C 1,6 C 0,0 km/h (0 Bft) 100 %
24.03.2016 02:00 1,4 C 1,4 C 1,6 C 88 % 1012,0 hPa 0,0 l/m 0,0 km/h (0 Bft) N 0 0 min 0,000 mm 0 W/m -0,4 C 1,4 C 0,0 km/h (0 Bft) 99 %
24.03.2016 02:10 1,4 C 1,4 C 1,4 C 90 % 1012,0 hPa 0,0 l/m 0,0 km/h (0 Bft) N 0 0 min 0,000 mm 0 W/m -0,1 C 1,4 C 0,0 km/h (0 Bft) 100 %
24.03.2016 02:20 1,7 C 1,4 C 1,7 C 90 % 1012,0 hPa 0,0 l/m 0,0 km/h (0 Bft) N 0 0 min 0,000 mm 0 W/m 0,2 C 1,7 C 0,0 km/h (0 Bft) 100 %
24.03.2016 02:30 2,1 C 1,7 C 2,1 C 90 % 1012,0 hPa 0,0 l/m 0,0 km/h (0 Bft) N 0 0 min 0,000 mm 0 W/m 0,6 C 2,1 C 0,0 km/h (0 Bft) 100 %
24.03.2016 02:40 2,3 C 2,1 C 2,3 C 90 % 1012,1 hPa 0,0 l/m 0,0 km/h (0 Bft) N 0 0 min 0,000 mm 0 W/m 0,8 C 2,3 C 0,0 km/h (0 Bft) 100 %
24.03.2016 02:50 2,4 C 2,2 C 2,4 C 90 % 1012,1 hPa 0,0 l/m 0,0 km/h (0 Bft) N 0 0 min 0,000 mm 0 W/m 0,9 C 2,4 C 0,0 km/h (0 Bft) 100 %
24.03.2016 03:00 2,5 C 2,4 C 2,5 C 89 % 1012,0 hPa 0,0 l/m 0,0 km/h (0 Bft) N 0 0 min 0,000 mm 0 W/m 0,9 C 2,5 C 0,0 km/h (0 Bft) 100 %
24.03.2016 03:10 2,6 C 2,5 C 2,6 C 89 % 1011,9 hPa 0,0 l/m 0,0 km/h (0 Bft) N 0 0 min 0,000 mm 0 W/m 1,0 C 2,6 C 0,0 km/h (0 Bft) 100 %
24.03.2016 03:20 2,8 C 2,6 C 2,8 C 89 % 1012,0 hPa 0,0 l/m 0,0 km/h (0 Bft) N 360 0 min 0,000 mm 0 W/m 1,2 C 2,8 C 3,2 km/h (1 Bft) 100 %
24.03.2016 03:30 2,8 C 2,8 C 2,8 C 89 % 1012,0 hPa 0,0 l/m 0,0 km/h (0 Bft) N 0 0 min 0,000 mm 0 W/m 1,2 C 2,8 C 0,0 km/h (0 Bft) 100 %
24.03.2016 03:40 2,8 C 2,7 C 2,8 C 89 % 1012,0 hPa 0,0 l/m 0,0 km/h (0 Bft) N 360 0 min 0,000 mm 0 W/m 1,2 C 2,8 C 1,6 km/h (1 Bft) 100 %
24.03.2016 03:50 2,8 C 2,8 C 2,8 C 89 % 1012,0 hPa 0,0 l/m 0,0 km/h (0 Bft) N 0 0 min 0,000 mm 0 W/m 1,2 C 2,8 C 0,0 km/h (0 Bft) 100 %
24.03.2016 04:00 2,8 C 2,8 C 2,9 C 88 % 1012,0 hPa 0,0 l/m 0,0 km/h (0 Bft) N 0 0 min 0,000 mm 0 W/m 1,0 C 2,8 C 0,0 km/h (0 Bft) 100 %
24.03.2016 04:10 2,8 C 2,8 C 2,8 C 89 % 1012,0 hPa 0,0 l/m 0,0 km/h (0 Bft) N 0 0 min 0,000 mm 0 W/m 1,2 C 2,8 C 0,0 km/h (0 Bft) 100 %
24.03.2016 04:20 2,7 C 2,7 C 2,8 C 89 % 1012,0 hPa 0,0 l/m 0,0 km/h (0 Bft) N 0 0 min 0,000 mm 0 W/m 1,1 C 2,7 C 0,0 km/h (0 Bft) 100 %
24.03.2016 04:30 2,6 C 2,6 C 2,7 C 89 % 1012,0 hPa 0,0 l/m 0,0 km/h (0 Bft) N 0 0 min 0,000 mm 0 W/m 1,0 C 2,6 C 0,0 km/h (0 Bft) 100 %
24.03.2016 04:40 2,3 C 2,3 C 2,6 C 89 % 1012,1 hPa 0,0 l/m 0,0 km/h (0 Bft) N 360 0 min 0,000 mm 0 W/m 0,7 C 2,3 C 1,6 km/h (1 Bft) 100 %
24.03.2016 04:50 2,2 C 2,2 C 2,4 C 89 % 1012,1 hPa 0,0 l/m 0,0 km/h (0 Bft) N 0 0 min 0,000 mm 0 W/m 0,6 C 2,2 C 0,0 km/h (0 Bft) 100 %
24.03.2016 05:00 2,1 C 2,1 C 2,2 C 90 % 1012,0 hPa 0,0 l/m 0,0 km/h (0 Bft) N 360 0 min 0,000 mm 0 W/m 0,6 C 2,1 C 1,6 km/h (1 Bft) 100 %
24.03.2016 05:10 2,2 C 2,1 C 2,2 C 90 % 1012,1 hPa 0,0 l/m 0,0 km/h (0 Bft) N 0 0 min 0,000 mm 0 W/m 0,7 C 2,2 C 0,0 km/h (0 Bft) 100 %
24.03.2016 05:20 2,0 C 2,0 C 2,2 C 90 % 1012,2 hPa 0,0 l/m 0,0 km/h (0 Bft) N 0 0 min 0,000 mm 0 W/m 0,5 C 2,0 C 0,0 km/h (0 Bft) 100 %
24.03.2016 05:30 1,9 C 1,9 C 2,0 C 90 % 1012,5 hPa 0,0 l/m 0,0 km/h (0 Bft) N 0 0 min 0,000 mm 0 W/m 0,4 C 1,9 C 0,0 km/h (0 Bft) 100 %
24.03.2016 05:40 1,8 C 1,8 C 1,9 C 90 % 1012,6 hPa 0,0 l/m 0,0 km/h (0 Bft) N 0 0 min 0,000 mm 0 W/m 0,3 C 1,8 C 0,0 km/h (0 Bft) 100 %
24.03.2016 05:50 1,9 C 1,8 C 1,9 C 91 % 1012,6 hPa 0,0 l/m 0,0 km/h (0 Bft) N 0 0 min 0,000 mm 0 W/m 0,6 C 1,9 C 0,0 km/h (0 Bft) 100 %
24.03.2016 06:00 2,0 C 1,9 C 2,0 C 91 % 1012,8 hPa 0,0 l/m 0,0 km/h (0 Bft) N-NO 22 0 min 0,000 mm 0 W/m 0,7 C 2,0 C 1,6 km/h (1 Bft) 91 %
24.03.2016 06:10 2,1 C 2,0 C 2,1 C 90 % 1012,9 hPa 0,0 l/m 0,0 km/h (0 Bft) N 0 0 min 0,000 mm 0 W/m 0,6 C 2,1 C 0,0 km/h (0 Bft) 100 %
24.03.2016 06:20 2,1 C 2,1 C 2,1 C 90 % 1013,0 hPa 0,0 l/m 0,0 km/h (0 Bft) N-NO 22 0 min 0,000 mm 0 W/m 0,6 C 2,1 C 1,6 km/h (1 Bft) 100 %
24.03.2016 06:30 2,1 C 2,1 C 2,1 C 90 % 1013,1 hPa 0,0 l/m 0,0 km/h (0 Bft) N 0 0 min 0,000 mm 5 W/m 0,6 C 2,1 C 0,0 km/h (0 Bft) 100 %
24.03.2016 06:40 2,2 C 2,1 C 2,2 C 91 % 1013,3 hPa 0,0 l/m 0,0 km/h (0 Bft) N 0 0 min 0,000 mm 9 W/m 0,9 C 2,2 C 0,0 km/h (0 Bft) 100 %
24.03.2016 06:50 2,2 C 2,2 C 2,3 C 91 % 1013,4 hPa 0,0 l/m 0,0 km/h (0 Bft) N 0 0 min 0,000 mm 18 W/m 0,9 C 2,2 C 0,0 km/h (0 Bft) 100 %
24.03.2016 07:00 2,3 C 2,3 C 2,3 C 91 % 1013,5 hPa 0,0 l/m 0,0 km/h (0 Bft) N 0 0 min 0,000 mm 28 W/m 1,0 C 2,3 C 0,0 km/h (0 Bft) 100 %
24.03.2016 07:10 2,4 C 2,3 C 2,4 C 91 % 1013,6 hPa 0,0 l/m 0,0 km/h (0 Bft) N 0 0 min 0,000 mm 37 W/m 1,1 C 2,4 C 0,0 km/h (0 Bft) 100 %
24.03.2016 07:20 2,5 C 2,4 C 2,5 C 91 % 1013,7 hPa 0,0 l/m 0,0 km/h (0 Bft) N 0 0 min 0,000 mm 44 W/m 1,2 C 2,5 C 0,0 km/h (0 Bft) 100 %
24.03.2016 07:30 2,7 C 2,5 C 2,7 C 91 % 1013,7 hPa 0,0 l/m 0,0 km/h (0 Bft) N 0 0 min 0,000 mm 63 W/m 1,4 C 2,7 C 0,0 km/h (0 Bft) 100 %
24.03.2016 07:40 2,8 C 2,6 C 2,8 C 91 % 1013,9 hPa 0,0 l/m 0,0 km/h (0 Bft) N 0 0 min 0,000 mm 74 W/m 1,5 C 2,8 C 0,0 km/h (0 Bft) 100 %
24.03.2016 07:50 3,0 C 2,8 C 3,0 C 91 % 1013,9 hPa 0,0 l/m 0,0 km/h (0 Bft) N 0 0 min 0,000 mm 83 W/m 1,7 C 3,0 C 0,0 km/h (0 Bft) 100 %
24.03.2016 08:00 3,3 C 3,1 C 3,3 C 91 % 1014,0 hPa 0,0 l/m 0,0 km/h (0 Bft) N 0 0 min 0,025 mm 98 W/m 2,0 C 3,3 C 0,0 km/h (0 Bft) 100 %
24.03.2016 08:10 3,7 C 3,3 C 3,7 C 91 % 1014,0 hPa 0,0 l/m 0,0 km/h (0 Bft) N 0 0 min 0,000 mm 127 W/m 2,4 C 3,7 C 0,0 km/h (0 Bft) 100 %
24.03.2016 08:20 3,8 C 3,7 C 3,9 C 89 % 1014,0 hPa 0,0 l/m 1,6 km/h (1 Bft) S 180 0 min 0,000 mm 142 W/m 2,2 C 3,8 C 6,4 km/h (2 Bft) 100 %
24.03.2016 08:30 4,1 C 3,8 C 4,1 C 90 % 1014,2 hPa 0,0 l/m 0,0 km/h (0 Bft) S-SW 202 10 min 0,000 mm 214 W/m 2,6 C 4,1 C 6,4 km/h (2 Bft) 100 %
24.03.2016 08:40 4,1 C 4,1 C 4,2 C 89 % 1014,3 hPa 0,0 l/m 0,0 km/h (0 Bft) S-SW 202 10 min 0,000 mm 156 W/m 2,5 C 4,1 C 6,4 km/h (2 Bft) 100 %
24.03.2016 08:50 4,4 C 4,1 C 4,4 C 89 % 1014,3 hPa 0,0 l/m 0,0 km/h (0 Bft) S 180 10 min 0,000 mm 188 W/m 2,7 C 4,4 C 1,6 km/h (1 Bft) 100 %
24.03.2016 09:00 4,8 C 4,4 C 4,8 C 89 % 1014,4 hPa 0,0 l/m 0,0 km/h (0 Bft) S 180 10 min 0,051 mm 243 W/m 3,1 C 4,8 C 1,6 km/h (1 Bft) 100 %
24.03.2016 09:10 5,3 C 4,8 C 5,3 C 89 % 1014,4 hPa 0,0 l/m 0,0 km/h (0 Bft) S 180 10 min 0,000 mm 229 W/m 3,6 C 5,3 C 1,6 km/h (1 Bft) 100 %
24.03.2016 09:20 5,8 C 5,3 C 5,8 C 87 % 1014,3 hPa 0,0 l/m 0,0 km/h (0 Bft) SW 225 10 min 0,000 mm 276 W/m 3,8 C 5,8 C 1,6 km/h (1 Bft) 100 %
24.03.2016 09:30 6,3 C 5,9 C 6,3 C 85 % 1014,3 hPa 0,0 l/m 0,0 km/h (0 Bft) W-SW 247 10 min 0,000 mm 246 W/m 4,0 C 6,3 C 4,8 km/h (1 Bft) 100 %
24.03.2016 09:40 6,8 C 6,3 C 6,8 C 85 % 1014,4 hPa 0,0 l/m 0,0 km/h (0 Bft) SW 225 10 min 0,000 mm 352 W/m 4,5 C 6,8 C 1,6 km/h (1 Bft) 99 %
24.03.2016 09:50 7,5 C 6,8 C 7,5 C 80 % 1014,4 hPa 0,0 l/m 0,0 km/h (0 Bft) SW 225 10 min 0,000 mm 429 W/m 4,3 C 7,5 C 6,4 km/h (2 Bft) 99 %
24.03.2016 10:00 8,0 C 7,5 C 8,0 C 78 % 1014,3 hPa 0,0 l/m 0,0 km/h (0 Bft) SW 225 10 min 0,127 mm 404 W/m 4,4 C 8,0 C 6,4 km/h (2 Bft) 100 %
24.03.2016 10:10 8,2 C 8,0 C 8,2 C 74 % 1014,3 hPa 0,0 l/m 1,6 km/h (1 Bft) W-NW 292 10 min 0,000 mm 566 W/m 3,8 C 8,2 C 9,7 km/h (2 Bft) 100 %
24.03.2016 10:20 8,8 C 8,2 C 8,8 C 71 % 1014,3 hPa 0,0 l/m 0,0 km/h (0 Bft) W-SW 247 10 min 0,000 mm 635 W/m 3,8 C 8,8 C 4,8 km/h (1 Bft) 100 %
24.03.2016 10:30 9,3 C 8,8 C 9,3 C 66 % 1014,4 hPa 0,0 l/m 1,6 km/h (1 Bft) W-NW 292 10 min 0,000 mm 675 W/m 3,3 C 9,3 C 8,0 km/h (2 Bft) 100 %
24.03.2016 10:40 9,5 C 9,3 C 9,6 C 62 % 1014,6 hPa 0,0 l/m 1,6 km/h (1 Bft) NW 315 10 min 0,000 mm 663 W/m 2,6 C 9,5 C 9,7 km/h (2 Bft) 100 %
24.03.2016 10:50 9,0 C 9,0 C 9,5 C 61 % 1014,6 hPa 0,0 l/m 1,6 km/h (1 Bft) W-NW 292 10 min 0,000 mm 214 W/m 1,9 C 9,0 C 8,0 km/h (2 Bft) 100 %
24.03.2016 11:00 9,3 C 8,9 C 9,3 C 60 % 1014,5 hPa 0,0 l/m 4,8 km/h (1 Bft) W 270 10 min 0,203 mm 686 W/m 1,9 C 9,3 C 19,3 km/h (3 Bft) 100 %
24.03.2016 11:10 9,8 C 9,3 C 9,8 C 57 % 1014,5 hPa 0,0 l/m 8,0 km/h (2 Bft) W-NW 292 10 min 0,000 mm 705 W/m 1,7 C 8,6 C 20,9 km/h (4 Bft) 100 %
24.03.2016 11:20 10,1 C 9,8 C 10,1 C 58 % 1014,5 hPa 0,0 l/m 6,4 km/h (2 Bft) W-SW 247 10 min 0,000 mm 809 W/m 2,2 C 10,1 C 17,7 km/h (3 Bft) 100 %
24.03.2016 11:30 10,2 C 10,1 C 10,3 C 54 % 1014,5 hPa 0,0 l/m 9,7 km/h (2 Bft) W-NW 292 10 min 0,000 mm 846 W/m 1,3 C 8,0 C 30,6 km/h (5 Bft) 100 %
24.03.2016 11:40 9,6 C 9,6 C 10,2 C 55 % 1014,5 hPa 0,0 l/m 9,7 km/h (2 Bft) W-NW 292 10 min 0,000 mm 243 W/m 1,0 C 7,3 C 19,3 km/h (3 Bft) 100 %
24.03.2016 11:50 9,2 C 9,2 C 9,6 C 57 % 1014,6 hPa 0,0 l/m 8,0 km/h (2 Bft) W 270 10 min 0,000 mm 325 W/m 1,1 C 8,0 C 25,7 km/h (4 Bft) 100 %
24.03.2016 12:00 9,2 C 9,2 C 9,3 C 55 % 1014,5 hPa 0,0 l/m 11,3 km/h (2 Bft) W 270 10 min 0,203 mm 346 W/m 0,6 C 6,0 C 25,7 km/h (4 Bft) 99 %
24.03.2016 12:10 9,1 C 9,1 C 9,2 C 57 % 1014,4 hPa 0,0 l/m 11,3 km/h (2 Bft) W 270 10 min 0,000 mm 236 W/m 1,0 C 5,9 C 20,9 km/h (4 Bft) 98 %
24.03.2016 12:20 8,9 C 8,9 C 9,1 C 59 % 1014,5 hPa 0,0 l/m 9,7 km/h (2 Bft) W 270 10 min 0,000 mm 332 W/m 1,3 C 6,6 C 25,7 km/h (4 Bft) 98 %
24.03.2016 12:30 9,6 C 8,9 C 9,6 C 58 % 1014,5 hPa 0,0 l/m 8,0 km/h (2 Bft) W 270 10 min 0,000 mm 661 W/m 1,8 C 8,4 C 22,5 km/h (4 Bft) 98 %
24.03.2016 12:40 9,6 C 9,6 C 9,7 C 58 % 1014,6 hPa 0,0 l/m 9,7 km/h (2 Bft) W 270 10 min 0,000 mm 244 W/m 1,8 C 7,3 C 22,5 km/h (4 Bft) 98 %
24.03.2016 12:50 9,2 C 9,2 C 9,6 C 58 % 1014,6 hPa 0,0 l/m 12,9 km/h (3 Bft) W-SW 247 10 min 0,000 mm 311 W/m 1,4 C 5,1 C 20,9 km/h (4 Bft) 97 %
24.03.2016 13:00 9,7 C 9,2 C 9,7 C 57 % 1014,6 hPa 0,0 l/m 11,3 km/h (2 Bft) W 270 10 min 0,203 mm 737 W/m 1,6 C 6,5 C 25,7 km/h (4 Bft) 98 %
24.03.2016 13:10 9,6 C 9,6 C 9,8 C 55 % 1014,7 hPa 0,0 l/m 14,5 km/h (3 Bft) W-NW 292 10 min 0,000 mm 671 W/m 1,0 C 4,9 C 32,2 km/h (5 Bft) 97 %
24.03.2016 13:20 9,1 C 9,1 C 9,6 C 56 % 1014,7 hPa 0,0 l/m 12,9 km/h (3 Bft) W-NW 292 10 min 0,000 mm 262 W/m 0,8 C 5,0 C 27,4 km/h (4 Bft) 96 %
24.03.2016 13:30 9,1 C 9,0 C 9,1 C 58 % 1014,7 hPa 0,0 l/m 9,7 km/h (2 Bft) W-NW 292 10 min 0,000 mm 707 W/m 1,3 C 6,8 C 19,3 km/h (3 Bft) 98 %
24.03.2016 13:40 10,0 C 9,1 C 10,0 C 54 % 1014,7 hPa 0,0 l/m 9,7 km/h (2 Bft) W-NW 292 10 min 0,000 mm 726 W/m 1,1 C 7,8 C 19,3 km/h (3 Bft) 98 %
24.03.2016 13:50 10,7 C 10,0 C 10,7 C 53 % 1014,5 hPa 0,0 l/m 8,0 km/h (2 Bft) W-NW 292 10 min 0,000 mm 742 W/m 1,5 C 9,6 C 17,7 km/h (3 Bft) 98 %
24.03.2016 14:00 10,5 C 10,5 C 10,7 C 54 % 1014,4 hPa 0,0 l/m 11,3 km/h (2 Bft) W-SW 247 10 min 0,254 mm 568 W/m 1,6 C 7,4 C 27,4 km/h (4 Bft) 97 %
24.03.2016 14:10 10,6 C 10,4 C 10,6 C 55 % 1014,4 hPa 0,0 l/m 9,7 km/h (2 Bft) NW 315 10 min 0,000 mm 417 W/m 1,9 C 8,4 C 24,1 km/h (4 Bft) 98 %
24.03.2016 14:20 10,7 C 10,6 C 10,7 C 51 % 1014,5 hPa 0,0 l/m 11,3 km/h (2 Bft) W 270 10 min 0,000 mm 673 W/m 1,0 C 7,7 C 22,5 km/h (4 Bft) 98 %
24.03.2016 14:30 10,7 C 10,7 C 10,8 C 49 % 1014,5 hPa 0,0 l/m 9,7 km/h (2 Bft) W-SW 247 10 min 0,000 mm 691 W/m 0,4 C 8,5 C 20,9 km/h (4 Bft) 98 %
24.03.2016 14:40 10,3 C 10,3 C 10,7 C 52 % 1014,4 hPa 0,0 l/m 4,8 km/h (1 Bft) W-NW 292 10 min 0,000 mm 230 W/m 0,9 C 10,3 C 14,5 km/h (3 Bft) 98 %
24.03.2016 14:50 10,4 C 10,2 C 10,4 C 53 % 1014,4 hPa 0,0 l/m 1,6 km/h (1 Bft) NW 315 10 min 0,000 mm 645 W/m 1,2 C 10,4 C 17,7 km/h (3 Bft) 97 %
24.03.2016 15:00 10,6 C 10,4 C 10,6 C 50 % 1014,3 hPa 0,0 l/m 3,2 km/h (1 Bft) W 270 10 min 0,229 mm 606 W/m 0,6 C 10,6 C 11,3 km/h (2 Bft) 98 %
24.03.2016 15:10 10,8 C 10,6 C 10,8 C 51 % 1014,4 hPa 0,0 l/m 3,2 km/h (1 Bft) W 270 10 min 0,000 mm 408 W/m 1,1 C 10,8 C 17,7 km/h (3 Bft) 97 %
24.03.2016 15:20 10,8 C 10,8 C 10,8 C 51 % 1014,4 hPa 0,0 l/m 3,2 km/h (1 Bft) W-NW 292 10 min 0,000 mm 211 W/m 1,1 C 10,8 C 17,7 km/h (3 Bft) 98 %
24.03.2016 15:30 10,6 C 10,6 C 10,8 C 51 % 1014,4 hPa 0,0 l/m 3,2 km/h (1 Bft) W-NW 292 0 min 0,000 mm 134 W/m 0,9 C 10,6 C 11,3 km/h (2 Bft) 97 %
24.03.2016 15:40 10,4 C 10,4 C 10,6 C 52 % 1014,3 hPa 0,0 l/m 1,6 km/h (1 Bft) NW 315 0 min 0,000 mm 135 W/m 1,0 C 10,4 C 9,7 km/h (2 Bft) 98 %
24.03.2016 15:50 10,2 C 10,2 C 10,4 C 52 % 1014,3 hPa 0,0 l/m 1,6 km/h (1 Bft) NW 315 0 min 0,000 mm 127 W/m 0,8 C 10,2 C 8,0 km/h (2 Bft) 98 %
24.03.2016 16:00 10,1 C 10,1 C 10,2 C 52 % 1014,5 hPa 0,0 l/m 0,0 km/h (0 Bft) NW 315 0 min 0,102 mm 128 W/m 0,7 C 10,1 C 8,0 km/h (2 Bft) 98 %
24.03.2016 16:10 10,0 C 10,0 C 10,1 C 51 % 1014,5 hPa 0,0 l/m 1,6 km/h (1 Bft) NW 315 0 min 0,000 mm 134 W/m 0,3 C 10,0 C 9,7 km/h (2 Bft) 98 %
24.03.2016 16:20 9,9 C 9,9 C 10,0 C 52 % 1014,6 hPa 0,0 l/m 3,2 km/h (1 Bft) NW 315 0 min 0,000 mm 132 W/m 0,5 C 9,9 C 11,3 km/h (2 Bft) 97 %
24.03.2016 16:30 9,8 C 9,8 C 9,9 C 52 % 1014,6 hPa 0,0 l/m 1,6 km/h (1 Bft) NW 315 0 min 0,000 mm 121 W/m 0,4 C 9,8 C 11,3 km/h (2 Bft) 98 %
24.03.2016 16:40 9,8 C 9,8 C 9,9 C 53 % 1014,6 hPa 0,0 l/m 0,0 km/h (0 Bft) N-NW 337 0 min 0,000 mm 104 W/m 0,7 C 9,8 C 4,8 km/h (1 Bft) 98 %
24.03.2016 16:50 9,8 C 9,8 C 9,9 C 54 % 1014,6 hPa 0,0 l/m 0,3 km/h (0 Bft) N-NW 327 0 min 0,000 mm 83 W/m 0,9 C 9,8 C 4,8 km/h (1 Bft) 99 %
24.03.2016 17:00 9,7 C 9,7 C 9,8 C 54 % 1014,6 hPa 0,0 l/m 0,0 km/h (0 Bft) N-NW 328 0 min 0,051 mm 54 W/m 0,9 C 9,7 C 1,6 km/h (1 Bft) 100 %
24.03.2016 17:10 9,6 C 9,6 C 9,7 C 52 % 1014,5 hPa 0,0 l/m 0,0 km/h (0 Bft) N-NW 328 0 min 0,000 mm 46 W/m 0,2 C 9,6 C 1,6 km/h (1 Bft) 100 %
24.03.2016 17:20 9,5 C 9,5 C 9,6 C 53 % 1014,5 hPa 0,0 l/m 0,0 km/h (0 Bft) N-NW 328 0 min 0,000 mm 33 W/m 0,4 C 9,5 C 0,0 km/h (0 Bft) 100 %
24.03.2016 17:30 9,4 C 9,4 C 9,5 C 53 % 1014,6 hPa 0,0 l/m 0,0 km/h (0 Bft) N-NW 328 0 min 0,000 mm 23 W/m 0,3 C 9,4 C 1,6 km/h (1 Bft) 100 %
24.03.2016 17:40 9,3 C 9,3 C 9,4 C 53 % 1014,6 hPa 0,0 l/m 0,0 km/h (0 Bft) N-NW 328 0 min 0,000 mm 19 W/m 0,2 C 9,3 C 0,0 km/h (0 Bft) 100 %
24.03.2016 17:50 9,2 C 9,1 C 9,3 C 55 % 1014,6 hPa 0,0 l/m 0,0 km/h (0 Bft) N-NW 328 0 min 0,000 mm 14 W/m 0,6 C 9,2 C 1,6 km/h (1 Bft) 100 %
24.03.2016 18:00 8,9 C 8,9 C 9,2 C 56 % 1014,7 hPa 0,0 l/m 0,0 km/h (0 Bft) N-NW 328 0 min 0,025 mm 7 W/m 0,6 C 8,9 C 0,0 km/h (0 Bft) 100 %
24.03.2016 18:10 8,8 C 8,8 C 8,9 C 57 % 1014,7 hPa 0,0 l/m 0,1 km/h (0 Bft) W-NW 292 0 min 0,000 mm 5 W/m 0,8 C 8,8 C 4,8 km/h (1 Bft) 100 %
24.03.2016 18:20 8,7 C 8,7 C 8,8 C 58 % 1014,9 hPa 0,0 l/m 2,1 km/h (1 Bft) W-NW 291 0 min 0,000 mm 0 W/m 0,9 C 8,7 C 6,4 km/h (2 Bft) 100 %
24.03.2016 18:30 8,6 C 8,6 C 8,7 C 60 % 1014,9 hPa 0,0 l/m 4,5 km/h (1 Bft) W-NW 296 0 min 0,000 mm 0 W/m 1,3 C 8,6 C 14,5 km/h (3 Bft) 100 %
24.03.2016 18:40 8,5 C 8,5 C 8,6 C 61 % 1014,8 hPa 0,0 l/m 2,2 km/h (1 Bft) W 275 0 min 0,000 mm 0 W/m 1,4 C 8,5 C 9,7 km/h (2 Bft) 100 %
24.03.2016 18:50 8,4 C 8,4 C 8,5 C 62 % 1015,1 hPa 0,0 l/m 3,2 km/h (1 Bft) W-NW 286 0 min 0,000 mm 0 W/m 1,6 C 8,4 C 9,7 km/h (2 Bft) 100 %
24.03.2016 19:00 8,3 C 8,3 C 8,4 C 64 % 1015,1 hPa 0,0 l/m 1,4 km/h (1 Bft) W-NW 284 0 min 0,000 mm 0 W/m 1,9 C 8,3 C 8,0 km/h (2 Bft) 99 %
24.03.2016 19:10 8,2 C 8,2 C 8,3 C 64 % 1015,3 hPa 0,0 l/m 2,8 km/h (1 Bft) W-NW 297 0 min 0,025 mm 0 W/m 1,8 C 8,2 C 8,0 km/h (2 Bft) 97 %
24.03.2016 19:20 8,2 C 8,2 C 8,2 C 65 % 1015,3 hPa 0,0 l/m 3,5 km/h (1 Bft) W-NW 291 0 min 0,001 mm 0 W/m 2,0 C 8,2 C 11,3 km/h (2 Bft) 97 %
24.03.2016 19:30 8,1 C 8,1 C 8,2 C 66 % 1015,4 hPa 0,0 l/m 1,9 km/h (1 Bft) W-NW 290 0 min 0,000 mm 0 W/m 2,1 C 8,1 C 9,7 km/h (2 Bft) 97 %
24.03.2016 19:40 8,0 C 8,0 C 8,1 C 67 % 1015,4 hPa 0,0 l/m 0,7 km/h (0 Bft) W-NW 297 0 min 0,000 mm 0 W/m 2,3 C 8,0 C 8,0 km/h (2 Bft) 98 %
24.03.2016 19:50 7,9 C 7,9 C 8,0 C 67 % 1015,5 hPa 0,0 l/m 0,5 km/h (0 Bft) W-NW 300 0 min 0,000 mm 0 W/m 2,2 C 7,9 C 6,4 km/h (2 Bft) 97 %
24.03.2016 20:00 7,9 C 7,9 C 7,9 C 68 % 1015,5 hPa 0,0 l/m 1,5 km/h (1 Bft) W-NW 297 0 min 0,025 mm 0 W/m 2,4 C 7,9 C 9,7 km/h (2 Bft) 97 %
24.03.2016 20:10 7,8 C 7,8 C 7,9 C 68 % 1015,6 hPa 0,0 l/m 1,3 km/h (1 Bft) W-NW 288 0 min 0,000 mm 0 W/m 2,3 C 7,8 C 8,0 km/h (2 Bft) 97 %
24.03.2016 20:20 7,7 C 7,7 C 7,8 C 69 % 1015,5 hPa 0,0 l/m 1,9 km/h (1 Bft) W-NW 293 0 min 0,000 mm 0 W/m 2,4 C 7,7 C 8,0 km/h (2 Bft) 97 %
24.03.2016 20:30 7,7 C 7,7 C 7,7 C 69 % 1015,7 hPa 0,0 l/m 2,6 km/h (1 Bft) W-NW 289 0 min 0,000 mm 0 W/m 2,4 C 7,7 C 11,3 km/h (2 Bft) 98 %
24.03.2016 20:40 7,6 C 7,6 C 7,7 C 70 % 1015,6 hPa 0,0 l/m 1,9 km/h (1 Bft) W-NW 298 0 min 0,000 mm 0 W/m 2,5 C 7,6 C 8,0 km/h (2 Bft) 97 %
24.03.2016 20:50 7,6 C 7,6 C 7,6 C 70 % 1015,6 hPa 0,0 l/m 2,8 km/h (1 Bft) W-NW 296 0 min 0,000 mm 0 W/m 2,5 C 7,6 C 8,0 km/h (2 Bft) 98 %
24.03.2016 21:00 7,5 C 7,5 C 7,6 C 71 % 1015,6 hPa 0,0 l/m 0,3 km/h (0 Bft) W-NW 295 0 min 0,025 mm 0 W/m 2,6 C 7,5 C 4,8 km/h (1 Bft) 97 %
24.03.2016 21:10 7,4 C 7,4 C 7,5 C 71 % 1015,6 hPa 0,0 l/m 3,2 km/h (1 Bft) W-NW 292 0 min 0,000 mm 0 W/m 2,5 C 7,4 C 8,0 km/h (2 Bft) 99 %
24.03.2016 21:20 7,3 C 7,3 C 7,4 C 72 % 1015,6 hPa 0,0 l/m 1,6 km/h (1 Bft) W-NW 292 0 min 0,000 mm 0 W/m 2,6 C 7,3 C 6,4 km/h (2 Bft) 89 %
24.03.2016 21:30 7,3 C 7,3 C 7,3 C 72 % 1015,6 hPa 0,0 l/m 0,0 km/h (0 Bft) W-NW 292 0 min 0,000 mm 0 W/m 2,6 C 7,3 C 1,6 km/h (1 Bft) 100 %
24.03.2016 21:40 7,2 C 7,2 C 7,3 C 72 % 1015,5 hPa 0,0 l/m 0,0 km/h (0 Bft) W-NW 292 0 min 0,000 mm 0 W/m 2,5 C 7,2 C 3,2 km/h (1 Bft) 99 %
24.03.2016 21:50 7,1 C 7,1 C 7,2 C 73 % 1015,5 hPa 0,0 l/m 0,0 km/h (0 Bft) W-NW 292 0 min 0,000 mm 0 W/m 2,6 C 7,1 C 1,6 km/h (1 Bft) 100 %
24.03.2016 22:00 7,0 C 7,0 C 7,1 C 73 % 1015,6 hPa 0,0 l/m 0,0 km/h (0 Bft) W-NW 292 0 min 0,025 mm 0 W/m 2,5 C 7,0 C 1,6 km/h (1 Bft) 100 %
24.03.2016 22:10 6,9 C 6,9 C 7,0 C 73 % 1015,5 hPa 0,0 l/m 0,0 km/h (0 Bft) W-NW 292 0 min 0,000 mm 0 W/m 2,4 C 6,9 C 1,6 km/h (1 Bft) 99 %
24.03.2016 22:20 6,8 C 6,8 C 6,9 C 74 % 1015,4 hPa 0,0 l/m 0,0 km/h (0 Bft) W-NW 292 0 min 0,000 mm 0 W/m 2,5 C 6,8 C 1,6 km/h (1 Bft) 99 %
24.03.2016 22:30 6,7 C 6,7 C 6,8 C 74 % 1015,4 hPa 0,0 l/m 0,0 km/h (0 Bft) N 0 0 min 0,000 mm 0 W/m 2,4 C 6,7 C 0,0 km/h (0 Bft) 100 %
24.03.2016 22:40 6,6 C 6,6 C 6,7 C 74 % 1015,3 hPa 0,0 l/m 0,0 km/h (0 Bft) W-NW 292 0 min 0,000 mm 0 W/m 2,3 C 6,6 C 1,6 km/h (1 Bft) 100 %
24.03.2016 22:50 6,6 C 6,6 C 6,6 C 75 % 1015,3 hPa 0,0 l/m 0,0 km/h (0 Bft) W-NW 292 0 min 0,000 mm 0 W/m 2,5 C 6,6 C 1,6 km/h (1 Bft) 100 %
24.03.2016 23:00 6,3 C 6,3 C 6,6 C 76 % 1015,4 hPa 0,0 l/m 0,0 km/h (0 Bft) W 270 0 min 0,025 mm 0 W/m 2,4 C 6,3 C 1,6 km/h (1 Bft) 100 %
24.03.2016 23:10 6,2 C 6,2 C 6,4 C 76 % 1015,4 hPa 0,0 l/m 0,0 km/h (0 Bft) W 270 0 min 0,000 mm 0 W/m 2,3 C 6,2 C 4,8 km/h (1 Bft) 100 %
24.03.2016 23:20 6,2 C 6,2 C 6,3 C 76 % 1015,3 hPa 0,0 l/m 1,6 km/h (1 Bft) W 270 0 min 0,000 mm 0 W/m 2,3 C 6,2 C 6,4 km/h (2 Bft) 100 %
24.03.2016 23:30 6,2 C 6,2 C 6,2 C 75 % 1015,3 hPa 0,0 l/m 0,0 km/h (0 Bft) SW 225 0 min 0,000 mm 0 W/m 2,1 C 6,2 C 6,4 km/h (2 Bft) 100 %
24.03.2016 23:40 6,2 C 6,2 C 6,2 C 74 % 1015,2 hPa 0,0 l/m 0,0 km/h (0 Bft) SW 225 0 min 0,000 mm 0 W/m 1,9 C 6,2 C 6,4 km/h (2 Bft) 100 %
24.03.2016 23:50 6,2 C 6,2 C 6,2 C 74 % 1015,3 hPa 0,0 l/m 0,0 km/h (0 Bft) SW 225 0 min 0,000 mm 0 W/m 1,9 C 6,2 C 1,6 km/h (1 Bft) 99 %
_ Min-Zeit 02:00 02:00 02:10 14:30 00:10 - 00:00 - - - - - 02:00 02:00 00:00 21:20
Minimum _ 1,4 C 1,4 C 1,4 C 49 % 1011,8 hPa - 0,0 km/h (0 Bft) - - - - - -0,4 C 1,4 C 0,0 km/h (0 Bft) 89 %
_ Max-Zeit 14:30 15:20 14:30 05:50 20:30 00:00 13:10 - - 08:30 14:00 11:30 09:40 15:10 13:10 00:00
Maximum _ 10,8 C 10,8 C 10,8 C 91 % 1015,7 hPa 0,0 l/m 14,5 km/h
W-NW (3 Bft)
- - 10 min 0,254 mm 846 W/m 4,5 C 10,8 C 32,2 km/h
W-NW (5 Bft)
100 %
Durchschnitt _ 6,3 C 6,2 C 6,4 C 73 % 1014,0 hPa #0,0 l/m 2,1 km/h (1 Bft) W-NW - #7:00 h #1,599 mm 304 W/m 1,5 C 6,0 C 6,8 km/h (2 Bft) 99 %
PRIVATE WETTERSTATION BILLIGHEIM-ALLFELD - www.neckar-odenwald-wetter.de - Holger Sonntag